Climax, North Carolina
Current Conditions -  °F | °C
As of 12:54 PM on Monday 24 Nov 2014 (Local Time) from KBUY Reporting Station
Scattered Clouds Scattered Clouds  
Wind Chill: 71°   Ceiling: Unl
Heat Index: 71°   Visibility: 10mi
Dew Point: 55°   Wind: 16mph
Humidity: 57%   Direction: 190°S
Pressure: 29.75"   Gusts: 28mph
Location:  35.91°N, 79.72°W
Report Text: KBUY 241754Z AUTO 19014G24KT 10SM SCT100 22/13 A2975 RMK AO2 SLP067 T02170128 10217 20156 58018
Loading
Personal Weather Stations






























Interactive Weather Map New forecast layout! Learn more

10-Day Weather Forecast

Advertisements
Track Severe Weather on mobile